Time;durP1;ratioP1;P1;durP2;ratioP2;P2;SDS_P1;SDS_P2;PMS_P1;PMS_P2;Temp;Humidity;BMP_temperature;BMP_pressure;BME280_temperature;BME280_humidity;BME280_pressure;Samples;Min_cycle;Max_cycle;Signal;HPM_P1;HPM_P2
2021/08/03 00:01:22;;;;;;;134.02;94.35;;;;;;;;;;4146666;34;20082;-84
2021/08/03 00:04:00;;;;;;;135.85;93.35;;;;;;;;;;4150717;34;20118;-84
2021/08/03 00:06:30;;;;;;;133.50;93.37;;;;;;;;;;4150733;34;20540;-85
2021/08/03 00:09:00;;;;;;;119.28;85.85;;;;;;;;;;4149353;34;20348;-84
2021/08/03 00:11:29;;;;;;;118.05;86.00;;;;;;;;;;4149600;34;20128;-84
2021/08/03 00:13:59;;;;;;;126.93;92.40;;;;;;;;;;4143532;34;20041;-84
2021/08/03 00:16:28;;;;;;;129.00;96.72;;;;;;;;;;4143991;34;20059;-85
2021/08/03 00:18:56;;;;;;;132.65;96.68;;;;;;;;;;4147984;34;20123;-84
2021/08/03 00:21:25;;;;;;;132.70;90.72;;;;;;;;;;4148013;34;20053;-84
2021/08/03 00:23:55;;;;;;;131.32;91.00;;;;;;;;;;4151838;34;20130;-84
2021/08/03 00:26:24;;;;;;;89.00;76.65;;;;;;;;;;4149659;34;20099;-84
2021/08/03 00:28:53;;;;;;;85.85;76.43;;;;;;;;;;4144947;34;20087;-84
2021/08/03 00:31:23;;;;;;;93.75;83.65;;;;;;;;;;4146207;34;20078;-84
2021/08/03 00:33:53;;;;;;;89.60;78.40;;;;;;;;;;4143690;34;20467;-84
2021/08/03 00:36:24;;;;;;;99.70;87.05;;;;;;;;;;4146800;34;20087;-84
2021/08/03 00:38:58;;;;;;;132.52;92.45;;;;;;;;;;4146510;34;20204;-84
2021/08/03 00:41:30;;;;;;;130.05;95.72;;;;;;;;;;4148205;34;20079;-84
2021/08/03 00:43:59;;;;;;;135.68;94.50;;;;;;;;;;4146554;34;20088;-84
2021/08/03 00:46:28;;;;;;;128.25;93.60;;;;;;;;;;4134440;34;20102;-84
2021/08/03 00:48:57;;;;;;;129.45;93.47;;;;;;;;;;4131944;34;20456;-85
2021/08/03 00:51:28;;;;;;;128.60;92.85;;;;;;;;;;4146702;34;20083;-84
2021/08/03 00:53:57;;;;;;;127.22;92.05;;;;;;;;;;4149808;34;20102;-84
2021/08/03 00:56:27;;;;;;;142.13;100.72;;;;;;;;;;4145809;34;20052;-85
2021/08/03 00:58:57;;;;;;;140.20;100.50;;;;;;;;;;4143484;34;20067;-83
2021/08/03 01:01:26;;;;;;;141.82;100.65;;;;;;;;;;4145307;34;20193;-84
2021/08/03 01:03:55;;;;;;;91.70;81.60;;;;;;;;;;4148366;34;20056;-84
2021/08/03 01:06:28;;;;;;;92.22;82.20;;;;;;;;;;4145207;34;20551;-84
2021/08/03 01:09:01;;;;;;;92.25;82.22;;;;;;;;;;4133875;34;20048;-84
2021/08/03 01:11:32;;;;;;;102.20;91.25;;;;;;;;;;4143745;34;20109;-84
2021/08/03 01:14:19;;;;;;;102.20;91.35;;;;;;;;;;4144994;34;20074;-85
2021/08/03 01:16:48;;;;;;;135.12;97.37;;;;;;;;;;4145555;34;20537;-84
2021/08/03 01:19:36;;;;;;;141.93;99.22;;;;;;;;;;4133634;34;20506;-84
2021/08/03 01:22:08;;;;;;;136.65;96.82;;;;;;;;;;4148219;34;20114;-84
2021/08/03 01:24:40;;;;;;;139.48;97.03;;;;;;;;;;4144193;34;20057;-84
2021/08/03 01:27:22;;;;;;;140.62;98.50;;;;;;;;;;4150919;34;20122;-84
2021/08/03 01:29:51;;;;;;;141.85;98.12;;;;;;;;;;4147870;34;20133;-84
2021/08/03 01:32:23;;;;;;;143.37;100.28;;;;;;;;;;4148053;34;20070;-84
2021/08/03 01:34:54;;;;;;;148.45;99.90;;;;;;;;;;4150021;34;20135;-84
2021/08/03 01:37:24;;;;;;;142.30;98.55;;;;;;;;;;4149993;34;20087;-83
2021/08/03 01:39:56;;;;;;;151.27;103.03;;;;;;;;;;4140265;34;20241;-84
2021/08/03 01:42:25;;;;;;;101.82;90.55;;;;;;;;;;4147357;34;20467;-85
2021/08/03 01:44:54;;;;;;;100.85;89.95;;;;;;;;;;4150155;34;20547;-84
2021/08/03 01:47:24;;;;;;;111.40;97.35;;;;;;;;;;4148074;34;20136;-84
2021/08/03 01:49:53;;;;;;;109.75;97.85;;;;;;;;;;4145622;34;20087;-84
2021/08/03 01:52:23;;;;;;;109.68;96.40;;;;;;;;;;4142575;34;20106;-84
2021/08/03 01:54:53;;;;;;;143.05;102.45;;;;;;;;;;4147325;34;20111;-84
2021/08/03 01:57:22;;;;;;;141.57;102.72;;;;;;;;;;4146976;34;20071;-84
2021/08/03 01:59:54;;;;;;;140.68;103.12;;;;;;;;;;4133913;34;20136;-84
2021/08/03 02:02:24;;;;;;;144.85;100.43;;;;;;;;;;4145057;34;20040;-85
2021/08/03 02:04:57;;;;;;;152.30;104.25;;;;;;;;;;4143077;34;20301;-84
2021/08/03 02:07:26;;;;;;;155.73;105.20;;;;;;;;;;4145538;34;20045;-85
2021/08/03 02:09:56;;;;;;;145.52;103.43;;;;;;;;;;4143860;34;20478;-85
2021/08/03 02:12:25;;;;;;;148.45;103.80;;;;;;;;;;4145844;34;20115;-84
2021/08/03 02:14:53;;;;;;;144.57;103.95;;;;;;;;;;4146218;34;20078;-84
2021/08/03 02:17:24;;;;;;;144.62;101.15;;;;;;;;;;4145090;34;20044;-84
2021/08/03 02:23:36;;;;;;;82.70;73.75;;;;;;;;;;4144853;34;20419;-84
2021/08/03 02:32:24;;;;;;;116.18;82.47;;;;;;;;;;4146312;34;20106;-84
2021/08/03 02:35:00;;;;;;;111.35;82.62;;;;;;;;;;4145740;34;20072;-84
2021/08/03 02:37:31;;;;;;;101.60;77.78;;;;;;;;;;4147851;34;20049;-84
2021/08/03 02:40:01;;;;;;;122.18;76.05;;;;;;;;;;4147659;34;20086;-84
2021/08/03 02:42:32;;;;;;;182.05;76.50;;;;;;;;;;4148841;34;20492;-83
2021/08/03 02:45:02;;;;;;;161.85;73.90;;;;;;;;;;4147876;34;20078;-84
2021/08/03 02:47:40;;;;;;;87.00;70.87;;;;;;;;;;4146354;34;20403;-84
2021/08/03 02:50:10;;;;;;;84.40;68.25;;;;;;;;;;4144853;34;20056;-84
2021/08/03 02:52:40;;;;;;;128.10;73.78;;;;;;;;;;4150282;34;20088;-84
2021/08/03 02:55:15;;;;;;;87.07;70.93;;;;;;;;;;4146969;34;20138;-83
2021/08/03 02:57:46;;;;;;;61.95;56.03;;;;;;;;;;4145892;34;20088;-84
2021/08/03 03:00:15;;;;;;;75.00;60.80;;;;;;;;;;4148268;34;20213;-83
2021/08/03 03:02:45;;;;;;;127.68;60.10;;;;;;;;;;4146377;34;20108;-83
2021/08/03 03:05:19;;;;;;;63.00;57.45;;;;;;;;;;4141966;34;20378;-83
2021/08/03 03:07:50;;;;;;;56.88;51.78;;;;;;;;;;4148749;34;20328;-83
2021/08/03 07:11:35;;;;;;;45.58;41.78;;;;;;;;;;4450873;28;20048;-82
2021/08/03 07:14:05;;;;;;;45.05;41.35;;;;;;;;;;4147549;34;20119;-83
2021/08/03 07:16:34;;;;;;;47.38;43.45;;;;;;;;;;4143546;34;20408;-83
2021/08/03 07:19:05;;;;;;;52.20;46.72;;;;;;;;;;4150383;34;20604;-82
2021/08/03 07:21:34;;;;;;;52.38;46.88;;;;;;;;;;4151044;34;20518;-82
2021/08/03 07:24:03;;;;;;;57.03;50.30;;;;;;;;;;4148089;34;20053;-82
2021/08/03 07:26:31;;;;;;;35.70;32.60;;;;;;;;;;4146553;34;20169;-82
2021/08/03 07:29:00;;;;;;;39.45;35.85;;;;;;;;;;4142234;34;20170;-83
2021/08/03 07:31:28;;;;;;;38.47;35.13;;;;;;;;;;4140181;34;20182;-83
2021/08/03 07:33:57;;;;;;;30.40;27.42;;;;;;;;;;4145778;34;21012;-82
2021/08/03 07:36:25;;;;;;;31.90;28.50;;;;;;;;;;4147593;34;20056;-83
2021/08/03 07:38:57;;;;;;;41.92;33.75;;;;;;;;;;4145358;34;20078;-82
2021/08/03 07:41:26;;;;;;;48.97;37.08;;;;;;;;;;4145735;34;20554;-82
2021/08/03 07:43:55;;;;;;;45.72;37.28;;;;;;;;;;4143817;34;20420;-83
2021/08/03 07:46:23;;;;;;;48.80;37.67;;;;;;;;;;4143898;34;20092;-83
2021/08/03 07:48:52;;;;;;;46.72;38.70;;;;;;;;;;4149828;34;20060;-83
2021/08/03 07:51:21;;;;;;;46.28;41.17;;;;;;;;;;4147240;34;20432;-83
2021/08/03 07:53:49;;;;;;;48.30;42.72;;;;;;;;;;4147414;34;20683;-83
2021/08/03 07:56:20;;;;;;;52.90;45.30;;;;;;;;;;4149467;34;20045;-84
2021/08/03 07:58:49;;;;;;;53.70;45.42;;;;;;;;;;4150220;34;20083;-83
2021/08/03 08:01:18;;;;;;;64.68;50.10;;;;;;;;;;4144190;34;20426;-84
2021/08/03 08:03:47;;;;;;;45.15;40.53;;;;;;;;;;4142635;34;20079;-84
2021/08/03 08:06:15;;;;;;;46.40;41.78;;;;;;;;;;4149006;34;20079;-83
2021/08/03 08:08:44;;;;;;;174.18;158.43;;;;;;;;;;4148279;34;20101;-83
2021/08/03 08:11:12;;;;;;;34.53;30.98;;;;;;;;;;4148578;34;20384;-83
2021/08/03 08:13:41;;;;;;;46.65;42.20;;;;;;;;;;4153498;34;20153;-83
2021/08/03 08:16:09;;;;;;;58.60;52.78;;;;;;;;;;4150379;34;20599;-84
2021/08/03 08:18:38;;;;;;;73.97;58.70;;;;;;;;;;4146177;34;20116;-84
2021/08/03 08:21:07;;;;;;;74.00;62.78;;;;;;;;;;4149757;34;20343;-84
2021/08/03 08:23:35;;;;;;;65.20;58.17;;;;;;;;;;4145472;34;20111;-84
2021/08/03 08:26:04;;;;;;;45.88;41.58;;;;;;;;;;4153831;34;20052;-84
2021/08/03 08:28:32;;;;;;;17.48;15.90;;;;;;;;;;4151217;34;20052;-83
2021/08/03 08:31:01;;;;;;;7.65;5.65;;;;;;;;;;4153224;34;20074;-84
2021/08/03 08:33:30;;;;;;;4.53;1.85;;;;;;;;;;4152081;34;20044;-84
2021/08/03 08:35:58;;;;;;;4.80;1.10;;;;;;;;;;4147078;34;20538;-85
2021/08/03 08:38:27;;;;;;;2.72;1.30;;;;;;;;;;4147037;34;20163;-85
2021/08/03 08:40:56;;;;;;;3.50;1.00;;;;;;;;;;4147688;34;20514;-85
2021/08/03 08:43:25;;;;;;;2.53;1.20;;;;;;;;;;4146780;34;20057;-85
2021/08/03 08:45:56;;;;;;;3.70;1.00;;;;;;;;;;4148512;34;20365;-85
2021/08/03 08:48:25;;;;;;;2.08;1.10;;;;;;;;;;4145015;34;20109;-85
2021/08/03 08:50:54;;;;;;;3.03;1.20;;;;;;;;;;4145695;34;20537;-85
2021/08/03 08:53:25;;;;;;;1.95;0.82;;;;;;;;;;4144138;34;20528;-86
2021/08/03 08:55:53;;;;;;;3.37;1.25;;;;;;;;;;4150655;34;20044;-85
2021/08/03 08:58:22;;;;;;;3.72;1.00;;;;;;;;;;4150724;34;20057;-85
2021/08/03 09:00:50;;;;;;;2.25;1.00;;;;;;;;;;4147929;34;20173;-85
2021/08/03 09:03:19;;;;;;;1.60;1.08;;;;;;;;;;4145055;34;20140;-85
2021/08/03 09:05:57;;;;;;;3.72;1.10;;;;;;;;;;4148042;34;20296;-86
2021/08/03 09:08:34;;;;;;;3.72;0.93;;;;;;;;;;4142117;34;20413;-85
2021/08/03 09:11:10;;;;;;;5.40;1.02;;;;;;;;;;4144724;34;20091;-84
2021/08/03 09:13:58;;;;;;;2.33;1.10;;;;;;;;;;4141908;34;20425;-85
2021/08/03 09:16:27;;;;;;;4.15;1.20;;;;;;;;;;4145985;34;20048;-85
2021/08/03 09:18:57;;;;;;;2.55;0.90;;;;;;;;;;4146156;34;20096;-85
2021/08/03 09:21:28;;;;;;;2.65;0.90;;;;;;;;;;4145597;34;20044;-85
2021/08/03 09:24:00;;;;;;;3.72;1.00;;;;;;;;;;4144947;34;20469;-86
2021/08/03 09:26:39;;;;;;;7.60;1.42;;;;;;;;;;4148428;34;20099;-84
2021/08/03 09:29:12;;;;;;;4.80;1.20;;;;;;;;;;4146596;34;20120;-84
2021/08/03 09:31:41;;;;;;;3.10;1.20;;;;;;;;;;4145772;34;20049;-85
2021/08/03 09:34:14;;;;;;;3.87;1.20;;;;;;;;;;4144922;34;20506;-85
2021/08/03 09:36:45;;;;;;;4.12;1.20;;;;;;;;;;4145361;34;20105;-85
2021/08/03 09:39:40;;;;;;;3.75;1.33;;;;;;;;;;4148327;34;20102;-86
2021/08/03 09:42:11;;;;;;;2.35;0.93;;;;;;;;;;4146301;34;20136;-85
2021/08/03 09:44:53;;;;;;;3.90;1.10;;;;;;;;;;4146643;34;20111;-85
2021/08/03 09:47:31;;;;;;;3.80;1.00;;;;;;;;;;4143554;34;20685;-86
2021/08/03 09:50:01;;;;;;;2.40;0.95;;;;;;;;;;4145905;34;20044;-85
2021/08/03 09:52:31;;;;;;;4.12;1.30;;;;;;;;;;4145473;34;20111;-85
2021/08/03 09:55:11;;;;;;;5.70;1.02;;;;;;;;;;4140280;34;20108;-85
2021/08/03 09:57:41;;;;;;;3.78;1.17;;;;;;;;;;4144969;34;20112;-85
2021/08/03 10:00:26;;;;;;;4.95;1.17;;;;;;;;;;4143454;34;20095;-85
2021/08/03 10:02:55;;;;;;;16.87;2.00;;;;;;;;;;4143577;34;20068;-85
2021/08/03 10:05:24;;;;;;;1.92;0.90;;;;;;;;;;4147431;34;20522;-85
2021/08/03 10:07:53;;;;;;;3.35;1.10;;;;;;;;;;4130843;34;21517;-86
2021/08/03 10:10:22;;;;;;;5.00;1.10;;;;;;;;;;4123331;34;20148;-87
2021/08/03 10:12:51;;;;;;;6.87;1.50;;;;;;;;;;4136010;34;20125;-85
2021/08/03 10:15:19;;;;;;;2.97;1.20;;;;;;;;;;4150564;34;20563;-85
2021/08/03 10:17:48;;;;;;;2.30;1.00;;;;;;;;;;4150944;34;20285;-85
2021/08/03 10:20:16;;;;;;;3.97;1.08;;;;;;;;;;4153122;34;20075;-85
2021/08/03 10:22:44;;;;;;;2.60;1.08;;;;;;;;;;4138938;34;20100;-85
2021/08/03 10:25:14;;;;;;;3.55;0.90;;;;;;;;;;4152262;34;20136;-85
2021/08/03 10:27:44;;;;;;;3.55;1.02;;;;;;;;;;4146594;34;20220;-85
2021/08/03 10:30:26;;;;;;;2.00;0.80;;;;;;;;;;4151411;34;20115;-85
2021/08/03 10:33:09;;;;;;;2.97;1.20;;;;;;;;;;4149156;34;20067;-85
2021/08/03 10:35:37;;;;;;;3.30;1.15;;;;;;;;;;4162937;34;20048;-85
2021/08/03 10:38:07;;;;;;;4.10;1.37;;;;;;;;;;4151483;34;20053;-85
2021/08/03 10:40:46;;;;;;;2.25;0.85;;;;;;;;;;4151660;34;20056;-85
2021/08/03 10:43:20;;;;;;;2.15;0.90;;;;;;;;;;4151578;34;20052;-85
2021/08/03 10:45:50;;;;;;;1.85;0.80;;;;;;;;;;4154645;34;20503;-85
2021/08/03 10:48:37;;;;;;;2.05;0.90;;;;;;;;;;4151671;34;20091;-86
2021/08/03 10:51:15;;;;;;;3.25;1.15;;;;;;;;;;4153116;34;20074;-85
2021/08/03 10:53:52;;;;;;;6.55;1.27;;;;;;;;;;4148841;34;20113;-84
2021/08/03 10:56:21;;;;;;;2.25;0.93;;;;;;;;;;4155619;34;20075;-85
2021/08/03 10:58:49;;;;;;;3.70;1.25;;;;;;;;;;4148032;34;20284;-85
2021/08/03 11:01:36;;;;;;;2.80;0.90;;;;;;;;;;4153526;34;20057;-85
2021/08/03 11:04:05;;;;;;;2.28;1.10;;;;;;;;;;4152103;34;20563;-85
2021/08/03 11:06:34;;;;;;;3.35;1.00;;;;;;;;;;4154273;34;20057;-85
2021/08/03 11:09:22;;;;;;;2.42;0.90;;;;;;;;;;4154880;34;20187;-85
2021/08/03 11:11:51;;;;;;;2.90;1.00;;;;;;;;;;4154894;34;20377;-85
2021/08/03 11:14:29;;;;;;;2.97;0.88;;;;;;;;;;4152501;34;20449;-85
2021/08/03 11:16:58;;;;;;;1.35;0.80;;;;;;;;;;4153036;34;20044;-85
2021/08/03 11:19:30;;;;;;;3.90;1.00;;;;;;;;;;4153467;34;20075;-85
2021/08/03 11:21:59;;;;;;;2.05;0.80;;;;;;;;;;4155484;34;20400;-85
2021/08/03 11:24:45;;;;;;;3.20;1.02;;;;;;;;;;4153092;34;20044;-85
2021/08/03 11:27:23;;;;;;;1.65;0.95;;;;;;;;;;4150200;34;20480;-85
2021/08/03 11:29:52;;;;;;;5.55;1.12;;;;;;;;;;4152540;34;20559;-85
2021/08/03 11:32:21;;;;;;;5.25;1.20;;;;;;;;;;4154677;34;20448;-85
2021/08/03 11:34:55;;;;;;;4.30;1.05;;;;;;;;;;4153877;34;20048;-84
2021/08/03 11:37:24;;;;;;;3.30;1.10;;;;;;;;;;4156478;34;20409;-85
2021/08/03 11:39:57;;;;;;;3.78;1.20;;;;;;;;;;4154691;34;20092;-85
2021/08/03 11:42:39;;;;;;;5.68;1.17;;;;;;;;;;4154088;34;20057;-85
2021/08/03 11:45:16;;;;;;;4.27;0.97;;;;;;;;;;4149819;34;20074;-85
2021/08/03 11:47:55;;;;;;;4.37;0.93;;;;;;;;;;4152319;34;20191;-85
2021/08/03 11:50:29;;;;;;;3.10;1.15;;;;;;;;;;4154655;34;20532;-85
2021/08/03 11:53:05;;;;;;;5.70;1.05;;;;;;;;;;4154004;34;20111;-85
2021/08/03 11:55:34;;;;;;;3.50;1.10;;;;;;;;;;4156921;34;20040;-85
2021/08/03 11:58:05;;;;;;;5.65;0.73;;;;;;;;;;4142740;34;20064;-85
2021/08/03 12:00:33;;;;;;;6.87;1.20;;;;;;;;;;4150296;34;20431;-85
2021/08/03 12:03:02;;;;;;;5.53;1.23;;;;;;;;;;4151428;34;20234;-85
2021/08/03 12:05:34;;;;;;;1.83;0.80;;;;;;;;;;4155323;34;20432;-85
2021/08/03 12:08:05;;;;;;;3.05;0.90;;;;;;;;;;4159754;34;20064;-85
2021/08/03 12:10:54;;;;;;;2.67;0.98;;;;;;;;;;4154545;34;20060;-85
2021/08/03 12:13:27;;;;;;;3.87;1.17;;;;;;;;;;4152546;34;20546;-84
2021/08/03 12:15:56;;;;;;;2.08;0.90;;;;;;;;;;4157414;34;20204;-85
2021/08/03 12:18:34;;;;;;;3.03;1.05;;;;;;;;;;4161493;34;20048;-85
2021/08/03 12:21:02;;;;;;;6.68;1.00;;;;;;;;;;4153214;34;20434;-85
2021/08/03 12:23:35;;;;;;;2.78;0.88;;;;;;;;;;4152994;34;20079;-85
2021/08/03 12:26:03;;;;;;;2.95;0.90;;;;;;;;;;4155127;34;20112;-84
2021/08/03 12:28:37;;;;;;;3.33;1.00;;;;;;;;;;4150036;34;20190;-85
2021/08/03 12:31:18;;;;;;;2.87;0.93;;;;;;;;;;4151641;34;20041;-84
2021/08/03 12:33:47;;;;;;;2.35;0.75;;;;;;;;;;4151972;34;20064;-84
2021/08/03 12:36:16;;;;;;;1.77;0.80;;;;;;;;;;4156646;34;20113;-85
2021/08/03 12:39:03;;;;;;;1.98;0.93;;;;;;;;;;4150148;34;20145;-84
2021/08/03 12:41:32;;;;;;;4.78;1.00;;;;;;;;;;4152053;34;20122;-85
2021/08/03 12:44:01;;;;;;;1.85;0.90;;;;;;;;;;4152929;34;20125;-85
2021/08/03 12:46:36;;;;;;;2.60;0.65;;;;;;;;;;4152861;34;20049;-84
2021/08/03 12:49:06;;;;;;;1.70;1.00;;;;;;;;;;4153074;34;20044;-85
2021/08/03 12:51:35;;;;;;;2.87;0.80;;;;;;;;;;4154491;34;20078;-84
2021/08/03 12:54:12;;;;;;;1.60;0.77;;;;;;;;;;4152177;34;20052;-85
2021/08/03 12:57:12;;;;;;;4.32;1.23;;;;;;;;;;4153847;34;20067;-84
2021/08/03 12:59:44;;;;;;;4.47;1.08;;;;;;;;;;4121241;34;20049;-84
2021/08/03 13:02:14;;;;;;;3.20;1.08;;;;;;;;;;4139852;34;20108;-85
2021/08/03 13:04:44;;;;;;;2.97;0.85;;;;;;;;;;4152637;34;21437;-85
2021/08/03 13:07:14;;;;;;;3.10;1.02;;;;;;;;;;4152313;34;20111;-84
2021/08/03 13:09:43;;;;;;;2.65;1.00;;;;;;;;;;4152108;34;20084;-84
2021/08/03 13:12:13;;;;;;;3.92;1.00;;;;;;;;;;4152140;34;20104;-84
2021/08/03 13:14:41;;;;;;;3.12;0.98;;;;;;;;;;4152606;34;20060;-85
2021/08/03 13:17:10;;;;;;;8.35;1.00;;;;;;;;;;4141203;34;20560;-85
2021/08/03 13:19:38;;;;;;;1.20;0.62;;;;;;;;;;4153106;34;20057;-84
2021/08/03 13:22:07;;;;;;;5.25;0.85;;;;;;;;;;4153219;34;20095;-84
2021/08/03 13:24:36;;;;;;;2.95;1.05;;;;;;;;;;4149450;34;20049;-85
2021/08/03 13:27:04;;;;;;;2.08;0.73;;;;;;;;;;4154763;34;20052;-84
2021/08/03 13:29:32;;;;;;;2.60;0.68;;;;;;;;;;4149705;34;20091;-84
2021/08/03 13:32:01;;;;;;;3.28;1.23;;;;;;;;;;4153401;34;20470;-84
2021/08/03 13:34:30;;;;;;;4.25;0.77;;;;;;;;;;4150451;34;20064;-84
2021/08/03 13:36:58;;;;;;;2.15;0.60;;;;;;;;;;4153585;34;20091;-84
2021/08/03 13:39:27;;;;;;;3.62;0.80;;;;;;;;;;4152792;34;20048;-84
2021/08/03 13:41:55;;;;;;;3.87;0.88;;;;;;;;;;4140335;34;20563;-84
2021/08/03 13:44:24;;;;;;;3.33;0.80;;;;;;;;;;4151656;34;20044;-84
2021/08/03 13:46:53;;;;;;;12.15;1.50;;;;;;;;;;4145540;34;20088;-85
2021/08/03 13:49:21;;;;;;;5.55;0.93;;;;;;;;;;4152805;34;20117;-84
2021/08/03 13:51:50;;;;;;;4.30;0.98;;;;;;;;;;4152362;34;20132;-84
2021/08/03 13:54:18;;;;;;;3.08;0.90;;;;;;;;;;4151727;34;20350;-84
2021/08/03 13:56:47;;;;;;;5.80;1.17;;;;;;;;;;4153914;34;20102;-85
2021/08/03 13:59:15;;;;;;;5.47;1.08;;;;;;;;;;4139304;34;20400;-84
2021/08/03 14:01:44;;;;;;;3.87;1.00;;;;;;;;;;4153751;34;20110;-85
2021/08/03 14:04:14;;;;;;;3.55;0.82;;;;;;;;;;4146406;34;20856;-84
2021/08/03 14:06:42;;;;;;;5.20;0.80;;;;;;;;;;4150184;34;20484;-84
2021/08/03 14:09:10;;;;;;;4.43;1.05;;;;;;;;;;4150574;34;20114;-84
2021/08/03 14:11:39;;;;;;;4.07;1.12;;;;;;;;;;4152776;34;20052;-84
2021/08/03 14:14:08;;;;;;;4.40;1.00;;;;;;;;;;4150442;34;20132;-84
2021/08/03 14:16:38;;;;;;;3.53;0.80;;;;;;;;;;4153186;34;20090;-85
2021/08/03 14:19:08;;;;;;;4.32;1.05;;;;;;;;;;4150893;34;20475;-84
2021/08/03 14:21:38;;;;;;;3.47;0.75;;;;;;;;;;4150703;34;20044;-84
2021/08/03 14:24:06;;;;;;;3.25;0.70;;;;;;;;;;4151390;34;20139;-84
2021/08/03 14:26:35;;;;;;;3.00;0.95;;;;;;;;;;4156032;34;20444;-84
2021/08/03 14:29:04;;;;;;;3.85;1.08;;;;;;;;;;4149343;34;20092;-84
2021/08/03 14:31:32;;;;;;;4.90;1.10;;;;;;;;;;4144199;34;20052;-84
2021/08/03 14:34:01;;;;;;;3.15;0.82;;;;;;;;;;4148471;34;20080;-84
2021/08/03 14:36:30;;;;;;;6.95;1.17;;;;;;;;;;4152229;34;20068;-84
2021/08/03 14:38:58;;;;;;;3.05;0.73;;;;;;;;;;4151011;34;20088;-83
2021/08/03 14:41:27;;;;;;;5.93;1.00;;;;;;;;;;4163604;34;20081;-84
2021/08/03 14:43:56;;;;;;;2.67;0.80;;;;;;;;;;4150129;34;20710;-84
2021/08/03 14:46:26;;;;;;;2.28;0.65;;;;;;;;;;4152825;34;20127;-84
2021/08/03 14:48:55;;;;;;;4.43;1.40;;;;;;;;;;4147224;34;20109;-85
2021/08/03 14:51:24;;;;;;;3.37;1.10;;;;;;;;;;4153649;34;20066;-84
2021/08/03 14:53:52;;;;;;;5.97;1.60;;;;;;;;;;4149286;34;20056;-84
2021/08/03 14:56:21;;;;;;;4.40;1.00;;;;;;;;;;4140753;34;20095;-84
2021/08/03 14:58:50;;;;;;;2.30;0.75;;;;;;;;;;4149510;34;20533;-83
2021/08/03 15:01:19;;;;;;;1.67;0.52;;;;;;;;;;4146871;34;20068;-84
2021/08/03 15:03:48;;;;;;;2.92;0.80;;;;;;;;;;4142995;34;22206;-84
2021/08/03 15:06:16;;;;;;;5.22;1.00;;;;;;;;;;4136926;34;20199;-84
2021/08/03 15:08:45;;;;;;;6.32;1.12;;;;;;;;;;4153070;34;20735;-84
2021/08/03 15:11:14;;;;;;;9.05;1.67;;;;;;;;;;4148699;34;20150;-84
2021/08/03 15:13:42;;;;;;;3.05;0.88;;;;;;;;;;4151802;34;20078;-83
2021/08/03 15:16:11;;;;;;;3.22;1.17;;;;;;;;;;4152033;34;20067;-84
2021/08/03 15:18:40;;;;;;;4.12;0.90;;;;;;;;;;4151055;34;20117;-84
2021/08/03 15:21:08;;;;;;;4.87;1.08;;;;;;;;;;4155032;34;20094;-83
2021/08/03 15:23:37;;;;;;;2.92;0.82;;;;;;;;;;4146613;34;20091;-83
2021/08/03 15:26:06;;;;;;;4.60;0.80;;;;;;;;;;4151349;34;20123;-84
2021/08/03 15:28:35;;;;;;;3.03;0.93;;;;;;;;;;4142869;34;20064;-83
2021/08/03 15:31:04;;;;;;;3.03;1.33;;;;;;;;;;4142885;34;20098;-83
2021/08/03 15:33:33;;;;;;;3.95;0.90;;;;;;;;;;4148062;34;20096;-84
2021/08/03 15:36:01;;;;;;;3.78;0.80;;;;;;;;;;4141662;34;20092;-84
2021/08/03 15:38:30;;;;;;;4.10;0.95;;;;;;;;;;4148965;34;20116;-84
2021/08/03 15:40:59;;;;;;;3.97;0.90;;;;;;;;;;4141843;34;20464;-83
2021/08/03 15:43:27;;;;;;;5.28;1.20;;;;;;;;;;4142106;34;20048;-83
2021/08/03 15:45:57;;;;;;;3.33;1.20;;;;;;;;;;4144774;34;20060;-83
2021/08/03 15:48:28;;;;;;;3.55;1.00;;;;;;;;;;4139901;34;20087;-84
2021/08/03 15:50:58;;;;;;;3.35;0.82;;;;;;;;;;4142737;34;20102;-83
2021/08/03 15:53:26;;;;;;;3.53;0.85;;;;;;;;;;4140085;34;20060;-83
2021/08/03 15:55:55;;;;;;;5.03;0.98;;;;;;;;;;4144303;34;20049;-84
2021/08/03 15:58:23;;;;;;;5.68;0.98;;;;;;;;;;4144650;34;20161;-84
2021/08/03 16:00:52;;;;;;;4.22;1.12;;;;;;;;;;4143992;34;20093;-85
2021/08/03 16:03:21;;;;;;;2.62;0.80;;;;;;;;;;4144291;34;20065;-83
2021/08/03 16:05:50;;;;;;;4.75;1.10;;;;;;;;;;4142386;34;20393;-83
2021/08/03 16:08:20;;;;;;;2.95;1.20;;;;;;;;;;4146248;34;20189;-84
2021/08/03 16:10:49;;;;;;;4.47;1.08;;;;;;;;;;4147018;34;20419;-83
2021/08/03 16:13:17;;;;;;;4.75;1.00;;;;;;;;;;4144684;34;20053;-84
2021/08/03 16:15:51;;;;;;;4.18;1.05;;;;;;;;;;4141535;34;20084;-84
2021/08/03 16:18:21;;;;;;;2.90;0.80;;;;;;;;;;4143039;34;20056;-83
2021/08/03 16:20:49;;;;;;;5.68;0.98;;;;;;;;;;4132554;34;20526;-83
2021/08/03 16:23:18;;;;;;;5.32;1.08;;;;;;;;;;4135921;34;20118;-84
2021/08/03 16:25:48;;;;;;;5.87;1.20;;;;;;;;;;4137025;34;20053;-84
2021/08/03 16:28:16;;;;;;;5.80;1.10;;;;;;;;;;4142897;34;20048;-83
2021/08/03 16:30:47;;;;;;;5.47;0.90;;;;;;;;;;4138668;34;20712;-83
2021/08/03 16:33:22;;;;;;;5.65;1.00;;;;;;;;;;4138179;34;20569;-84
2021/08/03 16:35:51;;;;;;;5.12;1.05;;;;;;;;;;4133357;34;20068;-84
2021/08/03 16:38:20;;;;;;;4.50;1.17;;;;;;;;;;4138478;34;20056;-84
2021/08/03 16:40:49;;;;;;;3.95;0.98;;;;;;;;;;4137221;34;20045;-84
2021/08/03 16:43:18;;;;;;;4.32;1.10;;;;;;;;;;4131784;34;20439;-84
2021/08/03 16:45:47;;;;;;;7.57;1.55;;;;;;;;;;4148020;34;20460;-83
2021/08/03 16:48:19;;;;;;;6.70;1.20;;;;;;;;;;4136499;34;20065;-84
2021/08/03 16:50:48;;;;;;;8.85;1.70;;;;;;;;;;4139276;34;20088;-84
2021/08/03 16:53:17;;;;;;;5.18;1.50;;;;;;;;;;4137030;34;20645;-84
2021/08/03 16:55:46;;;;;;;5.62;1.60;;;;;;;;;;4149510;34;20052;-83
2021/08/03 16:58:15;;;;;;;6.45;1.70;;;;;;;;;;4144215;34;20660;-83
2021/08/03 17:01:10;;;;;;;6.12;1.80;;;;;;;;;;4155827;34;20391;-83
2021/08/03 17:03:57;;;;;;;8.18;1.60;;;;;;;;;;4144545;34;20157;-84
2021/08/03 17:06:29;;;;;;;5.35;1.50;;;;;;;;;;4146728;34;20129;-83
2021/08/03 17:09:02;;;;;;;5.97;1.58;;;;;;;;;;4145902;34;20168;-84
2021/08/03 17:11:57;;;;;;;4.93;1.42;;;;;;;;;;4146561;34;20057;-83
2021/08/03 17:14:34;;;;;;;4.60;1.10;;;;;;;;;;4144869;34;20056;-84
2021/08/03 17:17:05;;;;;;;5.80;1.10;;;;;;;;;;4144032;34;20056;-85
2021/08/03 17:19:48;;;;;;;6.15;1.55;;;;;;;;;;4138785;34;20718;-84
2021/08/03 17:22:19;;;;;;;6.53;2.10;;;;;;;;;;4143965;34;20109;-84
2021/08/03 17:24:49;;;;;;;7.43;1.48;;;;;;;;;;4137210;34;20146;-83
2021/08/03 17:27:28;;;;;;;7.60;1.67;;;;;;;;;;4137968;34;20444;-86
2021/08/03 17:29:57;;;;;;;8.77;2.20;;;;;;;;;;4144897;34;20113;-84
2021/08/03 17:32:28;;;;;;;10.43;1.60;;;;;;;;;;4146256;34;20128;-84
2021/08/03 17:35:01;;;;;;;4.65;1.85;;;;;;;;;;4141106;34;20210;-83
2021/08/03 17:37:31;;;;;;;7.87;1.98;;;;;;;;;;4143547;34;22073;-84
2021/08/03 17:40:02;;;;;;;5.80;1.58;;;;;;;;;;4147925;34;20089;-84
2021/08/03 17:42:35;;;;;;;9.73;1.73;;;;;;;;;;4156133;34;20498;-84
2021/08/03 17:45:05;;;;;;;9.23;2.33;;;;;;;;;;4133870;34;20104;-84
2021/08/03 17:47:39;;;;;;;8.43;4.20;;;;;;;;;;4137064;34;20132;-83
2021/08/03 17:50:13;;;;;;;13.43;6.57;;;;;;;;;;4133089;34;20120;-83
2021/08/03 17:52:47;;;;;;;28.92;26.75;;;;;;;;;;4134414;34;20133;-85
2021/08/03 17:55:16;;;;;;;6.18;5.20;;;;;;;;;;4134722;34;20534;-84
2021/08/03 17:57:49;;;;;;;18.23;16.75;;;;;;;;;;4144117;34;20083;-84
2021/08/03 18:00:18;;;;;;;43.03;40.22;;;;;;;;;;4145976;34;20266;-83
2021/08/03 18:02:48;;;;;;;14.98;13.65;;;;;;;;;;4143494;34;20040;-84
2021/08/03 18:05:18;;;;;;;11.50;10.32;;;;;;;;;;4142408;34;20049;-84
2021/08/03 18:07:46;;;;;;;30.35;28.25;;;;;;;;;;4147017;34;20511;-84
2021/08/03 18:10:16;;;;;;;41.05;37.90;;;;;;;;;;4146531;34;20266;-86
2021/08/03 18:12:45;;;;;;;28.35;26.20;;;;;;;;;;4153688;34;20056;-85
2021/08/03 18:15:15;;;;;;;51.55;47.67;;;;;;;;;;4150122;34;20078;-86
2021/08/03 18:17:44;;;;;;;42.13;38.85;;;;;;;;;;4150463;34;20052;-85
2021/08/03 18:20:14;;;;;;;42.50;39.47;;;;;;;;;;4150049;34;20049;-84
2021/08/03 18:22:43;;;;;;;24.80;22.58;;;;;;;;;;4148736;34;20480;-85
2021/08/03 18:25:13;;;;;;;52.67;48.35;;;;;;;;;;4149319;34;20366;-85
2021/08/03 18:27:44;;;;;;;37.78;33.92;;;;;;;;;;4148319;34;20446;-84
2021/08/03 18:30:14;;;;;;;37.95;34.30;;;;;;;;;;4142989;34;20130;-85
2021/08/03 18:33:02;;;;;;;27.02;24.70;;;;;;;;;;4146845;34;20099;-85
2021/08/03 18:35:44;;;;;;;30.20;27.10;;;;;;;;;;4146161;34;20127;-84
2021/08/03 18:38:13;;;;;;;33.95;30.35;;;;;;;;;;4141172;34;20088;-84
2021/08/03 18:40:43;;;;;;;28.77;25.90;;;;;;;;;;4146945;34;20418;-85
2021/08/03 18:43:13;;;;;;;26.90;24.50;;;;;;;;;;4146552;34;20056;-84
2021/08/03 18:45:46;;;;;;;26.87;24.42;;;;;;;;;;4147824;34;20124;-84
2021/08/03 18:48:15;;;;;;;24.33;21.87;;;;;;;;;;4140580;34;20397;-85
2021/08/03 18:50:45;;;;;;;29.85;27.05;;;;;;;;;;4145653;34;20418;-85
2021/08/03 18:53:16;;;;;;;30.75;27.87;;;;;;;;;;4145904;34;20052;-84
2021/08/03 18:55:47;;;;;;;30.00;27.15;;;;;;;;;;4145903;34;20532;-84
2021/08/03 18:58:16;;;;;;;30.88;27.77;;;;;;;;;;4145828;34;20064;-84
2021/08/03 19:00:52;;;;;;;27.25;24.67;;;;;;;;;;4146344;34;20099;-85
2021/08/03 19:03:27;;;;;;;38.33;34.30;;;;;;;;;;4145887;34;20092;-84
2021/08/03 19:06:13;;;;;;;49.08;44.05;;;;;;;;;;4145711;34;20056;-85